createdAt,value
2018-02-21T07:16:12.699Z,7.63
2018-02-21T07:18:41.162Z,17.20
2018-02-21T07:21:09.563Z,27.57
2018-02-21T07:23:37.856Z,21.83
2018-02-21T07:26:07.249Z,13.17
2018-02-21T07:28:35.342Z,11.60
2018-02-21T07:31:03.607Z,10.60
2018-02-21T07:33:32.707Z,10.60
2018-02-21T07:36:01.890Z,11.57
2018-02-21T07:38:32.418Z,10.30
2018-02-21T07:41:01.179Z,9.53
2018-02-21T07:43:29.261Z,9.73
2018-02-21T07:46:04.499Z,10.57
2018-02-21T07:48:32.739Z,8.90
2018-02-21T07:51:01.495Z,9.10
2018-02-21T07:53:29.565Z,8.87
2018-02-21T07:55:57.848Z,8.80
2018-02-21T07:58:26.248Z,9.33
2018-02-21T08:00:54.366Z,8.80
2018-02-21T08:03:22.645Z,8.90
2018-02-21T08:05:51.086Z,8.73
2018-02-21T08:08:20.246Z,10.53
2018-02-21T08:10:48.988Z,8.83
2018-02-21T08:13:17.091Z,9.13
2018-02-21T08:15:45.097Z,10.33
2018-02-21T08:18:13.418Z,10.77
2018-02-21T08:20:42.035Z,8.50
2018-02-21T08:23:10.183Z,9.53
2018-02-21T08:25:38.975Z,8.47
2018-02-21T08:28:07.644Z,8.37
2018-02-21T08:30:35.905Z,7.80
2018-02-21T08:33:04.587Z,8.27
2018-02-21T08:35:32.894Z,12.57
2018-02-21T08:38:01.154Z,9.20
2018-02-21T08:40:32.291Z,9.37
2018-02-21T08:43:00.551Z,8.27
2018-02-21T08:45:29.220Z,11.23
2018-02-21T08:47:57.414Z,8.13
2018-02-21T08:50:25.305Z,8.63
2018-02-21T08:53:00.204Z,9.93
2018-02-21T08:55:28.446Z,12.27
2018-02-21T08:57:58.429Z,8.20
2018-02-21T09:00:26.968Z,9.23
2018-02-21T09:02:58.504Z,8.67
2018-02-21T09:05:26.497Z,9.07
2018-02-21T09:07:57.965Z,9.33
2018-02-21T09:10:27.706Z,8.60
2018-02-21T09:12:56.085Z,9.50
2018-02-21T09:15:28.645Z,8.70
2018-02-21T09:17:56.627Z,9.27
2018-02-21T09:20:25.074Z,8.17
2018-02-21T09:22:53.175Z,9.70
2018-02-21T09:25:21.531Z,8.23
2018-02-21T09:30:40.802Z,9.37
2018-02-21T09:33:13.173Z,9.00
2018-02-21T09:35:42.180Z,10.40
2018-02-21T09:38:10.672Z,10.93
2018-02-21T09:40:38.920Z,10.90
2018-02-21T09:43:07.250Z,14.87
2018-02-21T09:45:35.553Z,13.20
2018-02-21T09:48:04.818Z,10.60
2018-02-21T09:50:32.899Z,10.97
2018-02-21T09:53:00.767Z,12.37
2018-02-21T09:55:29.056Z,11.20
2018-02-21T09:58:02.066Z,13.80
2018-02-21T10:00:31.349Z,11.43
2018-02-21T10:05:39.959Z,11.87
2018-02-21T10:08:07.998Z,12.10
2018-02-21T10:10:36.236Z,12.13
2018-02-21T10:13:04.269Z,11.87
2018-02-21T10:15:32.217Z,14.00
2018-02-21T10:18:00.121Z,12.07
2018-02-21T10:20:28.361Z,12.87
2018-02-21T10:22:56.417Z,13.37
2018-02-21T10:25:25.558Z,11.47
2018-02-21T10:27:54.796Z,12.43
2018-02-21T10:30:23.055Z,13.80
2018-02-21T10:32:51.857Z,14.33
2018-02-21T10:35:19.877Z,12.33
2018-02-21T10:37:47.858Z,12.67
2018-02-21T10:40:16.737Z,14.67
2018-02-21T10:42:44.692Z,11.27
2018-02-21T10:45:13.297Z,13.13
2018-02-21T10:47:41.775Z,14.27
2018-02-21T10:50:09.937Z,13.90
2018-02-21T10:52:38.217Z,12.37
2018-02-21T10:55:06.437Z,12.70
2018-02-21T10:57:34.624Z,14.40
2018-02-21T11:00:03.058Z,12.60
2018-02-21T11:54:22.135Z,19.70
2018-02-21T11:56:53.868Z,12.87
2018-02-21T11:59:22.703Z,11.90
2018-02-21T12:04:26.863Z,12.47
2018-02-21T12:06:55.350Z,11.33
2018-02-21T12:09:23.625Z,12.70
2018-02-21T12:11:51.914Z,12.77
2018-02-21T12:14:20.464Z,12.50
2018-02-21T12:16:48.654Z,19.57
2018-02-21T12:19:16.768Z,11.83
2018-02-21T12:21:45.683Z,12.47
2018-02-21T12:24:14.198Z,13.00
2018-02-21T12:26:43.618Z,15.67
2018-02-21T12:29:11.705Z,12.37
2018-02-21T12:31:41.450Z,12.77
2018-02-21T12:34:09.491Z,15.33
2018-02-21T12:36:39.532Z,12.93
2018-02-21T12:39:08.173Z,13.67
2018-02-21T12:41:37.763Z,18.40
2018-02-21T12:44:06.044Z,13.37
2018-02-21T12:46:35.537Z,14.80
2018-02-21T12:49:04.786Z,16.57
2018-02-21T12:51:33.102Z,14.43
2018-02-21T12:54:00.934Z,16.03
2018-02-21T12:56:29.101Z,15.40
2018-02-21T12:58:57.527Z,15.47
2018-02-21T13:01:26.000Z,14.40
2018-02-21T13:04:02.067Z,14.53
2018-02-21T13:06:30.938Z,17.53
2018-02-21T13:08:58.994Z,22.20
2018-02-21T13:11:30.879Z,18.30
2018-02-21T13:13:58.952Z,15.23
2018-02-21T13:16:26.913Z,18.13
2018-02-21T13:18:58.614Z,15.73
2018-02-21T13:21:29.313Z,17.70
2018-02-21T13:23:57.614Z,18.60
2018-02-21T13:26:25.742Z,17.10
2018-02-21T13:28:56.762Z,18.30
2018-02-21T13:31:24.940Z,17.37
2018-02-21T13:33:54.380Z,20.07
2018-02-21T13:36:22.941Z,18.40
2018-02-21T13:38:51.071Z,18.53
2018-02-21T13:41:19.912Z,23.57
2018-02-21T13:43:49.000Z,20.87
2018-02-21T13:46:18.305Z,17.73
2018-02-21T13:48:49.430Z,18.10
2018-02-21T13:51:20.069Z,25.50
2018-02-21T13:53:48.224Z,19.77
2018-02-21T13:56:18.033Z,20.33
2018-02-21T13:58:46.631Z,20.47
2018-02-21T14:01:15.362Z,21.07
2018-02-21T14:03:47.465Z,21.60
2018-02-21T14:06:15.819Z,20.17
2018-02-21T14:08:44.915Z,22.10
2018-02-21T14:11:19.878Z,35.40
2018-02-21T14:13:48.169Z,23.17
2018-02-21T14:16:24.710Z,23.07
2018-02-21T14:18:53.913Z,23.23
2018-02-21T14:21:30.989Z,23.83
2018-02-21T14:24:00.089Z,23.33
2018-02-21T14:26:28.056Z,21.67
2018-02-21T14:28:57.629Z,23.17
2018-02-21T14:31:26.268Z,23.80
2018-02-21T14:33:54.187Z,25.17
2018-02-21T14:36:22.487Z,24.97
2018-02-21T14:38:50.547Z,25.47
2018-02-21T14:41:18.427Z,24.63
2018-02-21T14:43:46.589Z,22.90
2018-02-21T14:46:14.788Z,24.00
2018-02-21T14:48:48.764Z,30.37
2018-02-21T14:51:16.848Z,23.63
2018-02-21T14:53:45.108Z,26.30
2018-02-21T14:56:17.724Z,25.20
2018-02-21T14:58:46.127Z,25.93
2018-02-21T15:01:15.883Z,26.00
2018-02-21T15:03:45.189Z,24.20
2018-02-21T15:06:13.467Z,25.97
2018-02-21T15:08:42.347Z,24.23
2018-02-21T15:11:10.617Z,28.60
2018-02-21T15:13:38.867Z,28.20
2018-02-21T15:16:12.396Z,27.87
2018-02-21T15:18:41.806Z,29.70
2018-02-21T15:21:13.395Z,27.93
2018-02-21T15:23:41.785Z,27.37
2018-02-21T15:26:10.033Z,29.03
2018-02-21T15:28:44.749Z,30.10
2018-02-21T15:31:12.938Z,26.13
2018-02-21T15:33:45.380Z,24.03
2018-02-21T15:36:13.364Z,24.03
2018-02-21T15:38:48.575Z,25.07
2018-02-21T15:41:18.061Z,27.87
2018-02-21T15:43:47.504Z,28.13
2018-02-21T15:46:16.781Z,30.20
2018-02-21T15:48:44.863Z,30.73
2018-02-21T15:51:13.007Z,29.17
2018-02-21T15:53:42.821Z,23.23
2018-02-21T15:56:12.019Z,21.10
2018-02-21T15:58:40.498Z,18.13
2018-02-21T16:01:08.892Z,27.80
2018-02-21T16:03:37.820Z,23.30
2018-02-21T16:06:06.382Z,33.17
